Time;durP1;ratioP1;P1;durP2;ratioP2;P2;SDS_P1;SDS_P2;PMS_P1;PMS_P2;Temp;Humidity;BMP_temperature;BMP_pressure;BME280_temperature;BME280_humidity;BME280_pressure;Samples;Min_cycle;Max_cycle;Signal;HPM_P1;HPM_P2
2024/01/29 00:01:30;;;;;;;10.97;5.63;;;;;;;;;;7367955;19;20312;-82
2024/01/29 00:03:55;;;;;;;10.20;5.70;;;;;;;;;;7368052;19;20255;-80
2024/01/29 00:06:20;;;;;;;11.05;6.50;;;;;;;;;;7375270;19;20008;-79
2024/01/29 00:08:46;;;;;;;11.07;6.07;;;;;;;;;;7378098;19;20118;-81
2024/01/29 00:11:11;;;;;;;11.85;6.47;;;;;;;;;;7365113;19;20635;-78
2024/01/29 00:13:36;;;;;;;11.90;5.95;;;;;;;;;;7364203;19;20014;-81
2024/01/29 00:16:02;;;;;;;12.38;6.53;;;;;;;;;;7360688;19;20019;-80
2024/01/29 00:18:27;;;;;;;12.88;5.60;;;;;;;;;;7366426;19;20022;-79
2024/01/29 00:20:52;;;;;;;8.95;4.47;;;;;;;;;;7372787;19;20301;-81
2024/01/29 00:23:17;;;;;;;8.35;4.57;;;;;;;;;;7359410;19;20990;-83
2024/01/29 00:25:42;;;;;;;9.40;5.25;;;;;;;;;;7362270;19;20379;-79
2024/01/29 00:28:08;;;;;;;9.40;4.70;;;;;;;;;;7365417;19;20711;-78
2024/01/29 00:30:33;;;;;;;9.65;5.03;;;;;;;;;;7363543;19;20176;-83
2024/01/29 00:32:58;;;;;;;9.75;5.43;;;;;;;;;;7363302;19;20315;-80
2024/01/29 00:35:23;;;;;;;10.48;4.68;;;;;;;;;;7369971;19;20312;-78
2024/01/29 00:37:49;;;;;;;8.60;4.88;;;;;;;;;;7372978;19;20147;-81
2024/01/29 00:40:14;;;;;;;9.43;5.10;;;;;;;;;;7373435;19;20058;-81
2024/01/29 00:42:40;;;;;;;10.35;4.97;;;;;;;;;;7370233;19;19999;-78
2024/01/29 00:45:05;;;;;;;9.60;5.05;;;;;;;;;;7375151;19;20003;-81
2024/01/29 00:47:30;;;;;;;9.18;5.20;;;;;;;;;;7370834;19;20243;-84
2024/01/29 00:49:55;;;;;;;10.38;5.00;;;;;;;;;;7372929;19;20638;-79
2024/01/29 00:52:21;;;;;;;8.98;5.00;;;;;;;;;;7371001;19;20369;-79
2024/01/29 00:54:46;;;;;;;8.63;4.78;;;;;;;;;;7370316;19;20285;-79
2024/01/29 00:57:15;;;;;;;10.85;5.88;;;;;;;;;;7370316;19;19994;-81
2024/01/29 00:59:40;;;;;;;9.55;5.10;;;;;;;;;;7373005;19;20007;-84
2024/01/29 01:02:06;;;;;;;9.52;5.57;;;;;;;;;;7366588;19;20026;-80
2024/01/29 01:04:31;;;;;;;10.00;5.78;;;;;;;;;;7365153;19;20014;-80
2024/01/29 01:06:56;;;;;;;11.03;5.27;;;;;;;;;;7366723;19;20325;-78
2024/01/29 01:09:21;;;;;;;9.37;5.47;;;;;;;;;;7371032;19;20291;-79
2024/01/29 01:11:46;;;;;;;10.47;5.70;;;;;;;;;;7368457;19;20772;-82
2024/01/29 01:14:12;;;;;;;11.17;5.50;;;;;;;;;;7368292;19;20343;-83
2024/01/29 01:16:37;;;;;;;8.85;5.35;;;;;;;;;;7367703;19;20282;-79
2024/01/29 01:19:02;;;;;;;11.10;5.32;;;;;;;;;;7364325;19;19994;-81
2024/01/29 01:21:27;;;;;;;10.27;5.60;;;;;;;;;;7370501;19;19998;-80
2024/01/29 01:23:52;;;;;;;10.57;5.87;;;;;;;;;;7373418;19;20024;-79
2024/01/29 01:26:18;;;;;;;10.13;5.30;;;;;;;;;;7370047;19;20236;-82
2024/01/29 01:28:44;;;;;;;10.07;4.95;;;;;;;;;;7357867;19;20243;-81
2024/01/29 01:31:09;;;;;;;9.98;5.63;;;;;;;;;;7365343;19;20032;-78
2024/01/29 01:33:34;;;;;;;9.95;5.50;;;;;;;;;;7369665;19;20267;-78
2024/01/29 01:35:59;;;;;;;11.00;5.22;;;;;;;;;;7374779;19;20030;-84
2024/01/29 01:38:25;;;;;;;12.52;6.47;;;;;;;;;;7357255;19;20267;-80
2024/01/29 01:40:50;;;;;;;12.07;6.07;;;;;;;;;;7368035;19;20330;-79
2024/01/29 01:43:16;;;;;;;12.93;6.10;;;;;;;;;;7363378;19;20307;-78
2024/01/29 01:45:41;;;;;;;11.70;6.15;;;;;;;;;;7368814;19;20834;-80
2024/01/29 01:48:07;;;;;;;10.20;5.93;;;;;;;;;;7372124;19;20002;-78
2024/01/29 01:50:32;;;;;;;12.07;6.07;;;;;;;;;;7369498;19;20043;-79
2024/01/29 01:52:57;;;;;;;9.32;4.95;;;;;;;;;;7371830;19;20006;-78
2024/01/29 01:55:23;;;;;;;12.15;6.28;;;;;;;;;;7368102;19;20002;-77
2024/01/29 01:57:48;;;;;;;13.10;5.97;;;;;;;;;;7368483;19;20007;-79
2024/01/29 02:00:13;;;;;;;11.00;5.88;;;;;;;;;;7363723;19;19999;-81
2024/01/29 02:02:39;;;;;;;10.15;5.63;;;;;;;;;;7368859;19;20475;-81
2024/01/29 02:05:04;;;;;;;10.27;6.00;;;;;;;;;;7369221;19;20002;-80
2024/01/29 02:07:29;;;;;;;12.13;6.22;;;;;;;;;;7366946;19;20021;-79
2024/01/29 02:09:56;;;;;;;10.38;6.07;;;;;;;;;;7368589;19;19991;-79
2024/01/29 02:12:22;;;;;;;11.73;5.78;;;;;;;;;;7363090;19;20348;-82
2024/01/29 02:14:50;;;;;;;11.00;5.88;;;;;;;;;;7358009;19;20443;-81
2024/01/29 02:17:15;;;;;;;10.52;5.85;;;;;;;;;;7366652;19;20003;-81
2024/01/29 02:19:40;;;;;;;11.17;6.40;;;;;;;;;;7363494;19;20022;-83
2024/01/29 02:22:05;;;;;;;11.75;6.35;;;;;;;;;;7355580;19;20711;-84
2024/01/29 02:24:30;;;;;;;11.53;6.67;;;;;;;;;;7365250;19;20006;-83
2024/01/29 02:26:55;;;;;;;11.43;6.32;;;;;;;;;;7355915;19;20525;-83
2024/01/29 02:29:21;;;;;;;11.25;6.10;;;;;;;;;;7331137;19;20003;-83
2024/01/29 02:31:46;;;;;;;10.70;6.23;;;;;;;;;;7334707;19;20028;-79
2024/01/29 02:34:11;;;;;;;11.15;6.70;;;;;;;;;;7332009;19;20443;-83
2024/01/29 02:36:36;;;;;;;11.85;6.68;;;;;;;;;;7332750;19;20347;-82
2024/01/29 02:39:01;;;;;;;10.30;6.63;;;;;;;;;;7327399;19;20510;-82
2024/01/29 02:41:27;;;;;;;10.70;6.78;;;;;;;;;;7328290;19;21232;-83
2024/01/29 02:43:52;;;;;;;9.65;6.38;;;;;;;;;;7337141;19;19998;-84
2024/01/29 02:46:18;;;;;;;9.93;6.15;;;;;;;;;;7331778;19;20449;-80
2024/01/29 02:48:43;;;;;;;13.40;7.43;;;;;;;;;;7335455;19;20070;-81
2024/01/29 02:51:08;;;;;;;11.80;7.10;;;;;;;;;;7338627;19;20110;-82
2024/01/29 02:53:33;;;;;;;11.80;7.28;;;;;;;;;;7332610;19;20081;-78
2024/01/29 02:55:59;;;;;;;10.90;6.95;;;;;;;;;;7334723;19;20002;-84
2024/01/29 02:58:24;;;;;;;12.13;6.85;;;;;;;;;;7327790;19;19998;-80
2024/01/29 03:00:49;;;;;;;11.60;6.75;;;;;;;;;;7334740;19;20425;-85
2024/01/29 03:03:14;;;;;;;11.77;6.50;;;;;;;;;;7333974;19;20364;-81
2024/01/29 03:05:40;;;;;;;10.77;6.13;;;;;;;;;;7335581;19;20026;-83
2024/01/29 03:08:06;;;;;;;12.13;6.50;;;;;;;;;;7333680;19;19995;-82
2024/01/29 03:10:31;;;;;;;12.15;6.80;;;;;;;;;;7331617;19;20006;-84
2024/01/29 03:12:57;;;;;;;11.00;6.78;;;;;;;;;;7335700;19;20076;-81
2024/01/29 03:15:23;;;;;;;11.07;6.88;;;;;;;;;;7331723;19;20019;-82
2024/01/29 03:17:48;;;;;;;11.60;6.65;;;;;;;;;;7334673;19;20439;-82
2024/01/29 03:20:14;;;;;;;11.52;6.63;;;;;;;;;;7336553;19;20583;-80
2024/01/29 03:22:39;;;;;;;11.48;6.68;;;;;;;;;;7330186;19;20058;-82
2024/01/29 03:25:05;;;;;;;13.60;6.95;;;;;;;;;;7328165;19;20013;-79
2024/01/29 03:27:30;;;;;;;13.90;7.20;;;;;;;;;;7343697;19;20001;-81
2024/01/29 03:29:55;;;;;;;11.90;6.80;;;;;;;;;;7363529;19;20002;-80
2024/01/29 03:32:20;;;;;;;13.50;6.50;;;;;;;;;;7359511;19;20557;-81
2024/01/29 03:34:45;;;;;;;10.52;6.63;;;;;;;;;;7355393;19;20263;-78
2024/01/29 03:37:12;;;;;;;13.55;7.38;;;;;;;;;;7360328;19;20378;-78
2024/01/29 03:39:37;;;;;;;13.68;7.28;;;;;;;;;;7363590;19;20044;-83
2024/01/29 03:42:03;;;;;;;15.23;7.13;;;;;;;;;;7351382;19;20310;-80
2024/01/29 03:44:28;;;;;;;12.77;7.40;;;;;;;;;;7360829;19;20007;-78
2024/01/29 03:46:53;;;;;;;13.52;6.90;;;;;;;;;;7359762;19;20248;-81
2024/01/29 03:49:18;;;;;;;13.67;7.33;;;;;;;;;;7364875;19;20002;-81
2024/01/29 03:51:43;;;;;;;13.80;7.68;;;;;;;;;;7367902;19;20228;-79
2024/01/29 03:54:08;;;;;;;12.27;7.40;;;;;;;;;;7364948;19;20002;-78
2024/01/29 03:56:34;;;;;;;13.18;7.82;;;;;;;;;;7361393;19;21098;-81
2024/01/29 03:58:59;;;;;;;13.63;7.65;;;;;;;;;;7370838;19;20311;-80
2024/01/29 04:01:26;;;;;;;15.63;8.10;;;;;;;;;;7372895;19;19990;-84
2024/01/29 04:03:51;;;;;;;13.15;7.35;;;;;;;;;;7374406;19;20270;-79
2024/01/29 04:06:16;;;;;;;10.90;6.55;;;;;;;;;;7373342;19;20300;-78
2024/01/29 04:08:41;;;;;;;17.42;8.05;;;;;;;;;;7372922;19;20367;-78
2024/01/29 04:11:06;;;;;;;13.25;8.35;;;;;;;;;;7374503;19;20222;-79
2024/01/29 04:13:34;;;;;;;13.00;7.85;;;;;;;;;;7372217;19;20807;-81
2024/01/29 04:15:59;;;;;;;16.23;7.80;;;;;;;;;;7371175;19;20703;-80
2024/01/29 04:18:24;;;;;;;14.00;7.80;;;;;;;;;;7372861;19;20107;-80
2024/01/29 04:20:49;;;;;;;12.02;7.60;;;;;;;;;;7373033;19;20307;-78
2024/01/29 04:23:14;;;;;;;13.70;8.25;;;;;;;;;;7369011;19;20347;-79
2024/01/29 04:25:39;;;;;;;16.10;8.27;;;;;;;;;;7372625;19;19998;-81
2024/01/29 04:28:05;;;;;;;13.60;8.07;;;;;;;;;;7375308;19;20223;-78
2024/01/29 04:30:30;;;;;;;13.65;7.78;;;;;;;;;;7375083;19;20235;-79
2024/01/29 04:32:55;;;;;;;14.63;8.45;;;;;;;;;;7372680;19;19999;-78
2024/01/29 04:35:20;;;;;;;12.95;8.57;;;;;;;;;;7372417;19;20101;-84
2024/01/29 04:37:45;;;;;;;13.48;8.80;;;;;;;;;;7373557;19;20377;-83
2024/01/29 04:40:11;;;;;;;14.18;8.55;;;;;;;;;;7373412;19;20389;-81
2024/01/29 04:42:36;;;;;;;13.98;7.90;;;;;;;;;;7365428;19;20281;-81
2024/01/29 04:45:01;;;;;;;14.95;9.27;;;;;;;;;;7372591;19;20014;-82
2024/01/29 04:47:27;;;;;;;13.55;8.57;;;;;;;;;;7366771;19;20031;-80
2024/01/29 04:49:53;;;;;;;14.77;9.25;;;;;;;;;;7373997;19;20247;-82
2024/01/29 04:52:18;;;;;;;15.45;9.27;;;;;;;;;;7376108;19;20009;-82
2024/01/29 04:54:43;;;;;;;14.90;9.30;;;;;;;;;;7369482;19;20062;-84
2024/01/29 04:57:08;;;;;;;13.52;9.27;;;;;;;;;;7364528;19;20022;-81
2024/01/29 04:59:33;;;;;;;15.60;9.52;;;;;;;;;;7369031;19;20019;-82
2024/01/29 05:01:58;;;;;;;14.15;9.10;;;;;;;;;;7375131;19;19995;-80
2024/01/29 05:04:24;;;;;;;15.93;10.02;;;;;;;;;;7377570;19;20345;-82
2024/01/29 05:06:49;;;;;;;15.23;9.95;;;;;;;;;;7375209;19;20026;-80
2024/01/29 05:09:14;;;;;;;18.35;10.27;;;;;;;;;;7375902;19;20800;-80
2024/01/29 05:11:42;;;;;;;15.77;9.98;;;;;;;;;;7375984;19;20363;-80
2024/01/29 05:14:08;;;;;;;16.45;10.93;;;;;;;;;;7379746;19;20032;-81
2024/01/29 05:16:35;;;;;;;18.70;10.82;;;;;;;;;;7373274;19;20087;-80
2024/01/29 05:19:00;;;;;;;16.92;10.00;;;;;;;;;;7372033;19;20003;-81
2024/01/29 05:21:25;;;;;;;16.55;10.45;;;;;;;;;;7373037;19;20487;-82
2024/01/29 05:23:50;;;;;;;16.97;10.07;;;;;;;;;;7371064;19;20236;-81
2024/01/29 05:26:15;;;;;;;18.08;10.95;;;;;;;;;;7374575;19;20254;-82
2024/01/29 05:28:40;;;;;;;16.70;11.00;;;;;;;;;;7368162;19;20657;-82
2024/01/29 05:31:06;;;;;;;17.63;11.83;;;;;;;;;;7373068;19;20254;-80
2024/01/29 05:33:31;;;;;;;21.55;11.70;;;;;;;;;;7371979;19;20339;-82
2024/01/29 05:35:56;;;;;;;16.15;11.02;;;;;;;;;;7367898;19;20007;-81
2024/01/29 05:38:21;;;;;;;16.40;11.23;;;;;;;;;;7377657;19;20051;-82
2024/01/29 05:40:47;;;;;;;17.88;11.63;;;;;;;;;;7372217;19;19998;-82
2024/01/29 05:43:12;;;;;;;17.63;11.68;;;;;;;;;;7365621;19;20315;-84
2024/01/29 05:45:37;;;;;;;17.48;12.57;;;;;;;;;;7369719;19;20014;-81
2024/01/29 05:48:04;;;;;;;17.48;12.02;;;;;;;;;;7376529;19;20006;-81
2024/01/29 05:50:29;;;;;;;17.85;12.20;;;;;;;;;;7375085;19;20332;-80
2024/01/29 05:52:54;;;;;;;21.15;11.98;;;;;;;;;;7368474;19;20082;-84
2024/01/29 05:55:19;;;;;;;17.10;12.27;;;;;;;;;;7371696;19;20063;-79
2024/01/29 05:57:44;;;;;;;19.40;13.47;;;;;;;;;;7372397;19;20243;-81
2024/01/29 06:00:10;;;;;;;21.33;13.73;;;;;;;;;;7373278;19;20407;-81
2024/01/29 06:02:42;;;;;;;23.00;14.43;;;;;;;;;;7372987;19;20243;-81
2024/01/29 06:05:08;;;;;;;21.73;13.07;;;;;;;;;;7375011;19;20740;-79
2024/01/29 06:07:33;;;;;;;20.10;12.98;;;;;;;;;;7371134;19;20036;-82
2024/01/29 06:09:58;;;;;;;18.23;12.57;;;;;;;;;;7367719;19;20002;-83
2024/01/29 06:12:23;;;;;;;19.55;13.55;;;;;;;;;;7366731;19;20006;-78
2024/01/29 06:14:49;;;;;;;23.25;13.65;;;;;;;;;;7369898;19;20011;-79
2024/01/29 06:17:14;;;;;;;20.90;14.17;;;;;;;;;;7370049;19;20011;-80
2024/01/29 06:19:40;;;;;;;19.98;13.57;;;;;;;;;;7370377;19;20267;-83
2024/01/29 06:22:05;;;;;;;22.08;14.15;;;;;;;;;;7367074;19;20275;-80
2024/01/29 06:24:30;;;;;;;22.20;13.48;;;;;;;;;;7361133;19;20002;-81
2024/01/29 06:26:56;;;;;;;22.27;15.55;;;;;;;;;;7361586;19;20260;-80
2024/01/29 06:29:21;;;;;;;20.52;13.35;;;;;;;;;;7374610;19;20382;-80
2024/01/29 06:31:46;;;;;;;24.83;13.90;;;;;;;;;;7369569;19;20073;-81
2024/01/29 06:34:11;;;;;;;18.58;13.50;;;;;;;;;;7371376;19;20251;-81
2024/01/29 06:36:36;;;;;;;22.33;14.10;;;;;;;;;;7373660;19;20019;-81
2024/01/29 06:39:02;;;;;;;21.95;13.70;;;;;;;;;;7374180;19;20268;-82
2024/01/29 06:41:27;;;;;;;19.13;13.10;;;;;;;;;;7366895;19;20010;-83
2024/01/29 06:43:53;;;;;;;23.75;15.27;;;;;;;;;;7369176;19;19995;-79
2024/01/29 06:46:18;;;;;;;21.27;15.05;;;;;;;;;;7368898;19;20139;-79
2024/01/29 06:48:44;;;;;;;21.05;15.30;;;;;;;;;;7370294;19;20054;-81
2024/01/29 06:51:09;;;;;;;22.35;14.85;;;;;;;;;;7367847;19;20016;-80
2024/01/29 06:53:35;;;;;;;22.45;14.43;;;;;;;;;;7371939;19;20036;-80
2024/01/29 06:56:02;;;;;;;23.52;15.32;;;;;;;;;;7366460;19;20014;-79
2024/01/29 06:58:28;;;;;;;18.42;12.85;;;;;;;;;;7372441;19;20094;-79
2024/01/29 07:00:54;;;;;;;20.00;13.80;;;;;;;;;;7372506;19;20365;-80
2024/01/29 07:03:19;;;;;;;19.27;12.30;;;;;;;;;;7367240;19;20014;-81
2024/01/29 07:05:46;;;;;;;18.35;12.70;;;;;;;;;;7369174;19;20002;-79
2024/01/29 07:08:11;;;;;;;19.30;12.55;;;;;;;;;;7368337;19;20030;-82
2024/01/29 07:10:36;;;;;;;18.10;12.55;;;;;;;;;;7369999;19;20006;-80
2024/01/29 07:13:01;;;;;;;23.30;13.33;;;;;;;;;;7366222;19;20052;-79
2024/01/29 07:15:27;;;;;;;20.90;12.50;;;;;;;;;;7366413;19;20763;-80
2024/01/29 07:17:53;;;;;;;23.55;16.23;;;;;;;;;;7366631;19;20030;-82
2024/01/29 07:20:18;;;;;;;23.65;15.82;;;;;;;;;;7368537;19;20014;-80
2024/01/29 07:22:45;;;;;;;23.42;16.05;;;;;;;;;;7368124;19;20007;-82
2024/01/29 07:25:11;;;;;;;19.55;14.02;;;;;;;;;;7376907;19;20351;-79
2024/01/29 07:27:36;;;;;;;22.15;13.65;;;;;;;;;;7371333;19;20446;-78
2024/01/29 07:30:01;;;;;;;21.00;14.32;;;;;;;;;;7377557;19;20002;-83
2024/01/29 07:32:31;;;;;;;19.87;13.10;;;;;;;;;;7380623;19;20339;-79
2024/01/29 07:35:00;;;;;;;19.30;13.13;;;;;;;;;;7378995;19;20338;-81
2024/01/29 07:37:26;;;;;;;19.33;13.50;;;;;;;;;;7377675;19;20015;-81
2024/01/29 07:39:51;;;;;;;19.15;13.55;;;;;;;;;;7379383;19;20014;-80
2024/01/29 07:42:16;;;;;;;20.48;13.40;;;;;;;;;;7373537;19;20655;-81
2024/01/29 07:44:42;;;;;;;19.98;13.40;;;;;;;;;;7374818;19;20228;-82
2024/01/29 07:47:07;;;;;;;22.17;12.82;;;;;;;;;;7363981;19;19998;-80
2024/01/29 07:49:32;;;;;;;19.27;13.07;;;;;;;;;;7361189;19;20347;-82
2024/01/29 07:51:57;;;;;;;18.87;13.10;;;;;;;;;;7368284;19;20256;-79
2024/01/29 07:54:22;;;;;;;20.85;13.05;;;;;;;;;;7378412;19;20758;-80
2024/01/29 07:56:47;;;;;;;20.30;13.93;;;;;;;;;;7372507;19;20423;-79
2024/01/29 07:59:13;;;;;;;20.05;13.25;;;;;;;;;;7377510;19;20125;-79
2024/01/29 08:01:39;;;;;;;20.17;13.55;;;;;;;;;;7378158;19;20351;-80
2024/01/29 08:04:05;;;;;;;20.88;13.63;;;;;;;;;;7370970;19;20263;-80
2024/01/29 08:06:30;;;;;;;21.70;13.65;;;;;;;;;;7373429;19;20006;-79
2024/01/29 08:08:55;;;;;;;22.55;14.82;;;;;;;;;;7373730;19;19998;-79
2024/01/29 08:11:21;;;;;;;22.23;15.38;;;;;;;;;;7384376;19;20018;-81
2024/01/29 08:13:46;;;;;;;22.90;14.20;;;;;;;;;;7377712;19;21062;-80
2024/01/29 08:16:12;;;;;;;22.65;14.95;;;;;;;;;;7378485;19;20012;-78
2024/01/29 08:18:37;;;;;;;23.80;16.02;;;;;;;;;;7379110;19;20123;-81
2024/01/29 08:21:02;;;;;;;21.10;14.43;;;;;;;;;;7380281;19;20005;-81
2024/01/29 08:23:27;;;;;;;20.95;13.88;;;;;;;;;;7374172;19;20303;-80
2024/01/29 08:25:52;;;;;;;18.05;12.80;;;;;;;;;;7372056;19;20002;-79
2024/01/29 08:28:17;;;;;;;19.73;13.40;;;;;;;;;;7359309;19;20307;-80
2024/01/29 08:30:42;;;;;;;20.20;13.10;;;;;;;;;;7378682;19;20683;-79
2024/01/29 08:33:08;;;;;;;21.25;14.68;;;;;;;;;;7381767;19;20379;-80
2024/01/29 08:35:33;;;;;;;21.87;14.87;;;;;;;;;;7381131;19;20010;-80
2024/01/29 08:37:59;;;;;;;19.48;13.75;;;;;;;;;;7375010;19;20295;-80
2024/01/29 08:40:24;;;;;;;20.42;12.45;;;;;;;;;;7380242;19;20605;-80
2024/01/29 08:42:49;;;;;;;22.17;13.35;;;;;;;;;;7370580;19;19995;-80
2024/01/29 08:45:15;;;;;;;18.02;12.05;;;;;;;;;;7378104;19;20135;-80
2024/01/29 08:47:41;;;;;;;17.85;11.75;;;;;;;;;;7371051;19;20297;-80
2024/01/29 08:50:06;;;;;;;18.00;11.90;;;;;;;;;;7371193;19;20002;-81
2024/01/29 08:52:31;;;;;;;21.48;12.23;;;;;;;;;;7382081;19;20368;-81
2024/01/29 08:54:56;;;;;;;19.20;13.15;;;;;;;;;;7361814;19;20019;-81
2024/01/29 08:57:22;;;;;;;17.63;12.25;;;;;;;;;;7370703;19;20034;-81
2024/01/29 08:59:47;;;;;;;21.50;13.55;;;;;;;;;;7383651;19;20272;-80
2024/01/29 09:02:12;;;;;;;20.90;12.35;;;;;;;;;;7377555;19;20071;-80
2024/01/29 09:04:37;;;;;;;18.17;11.40;;;;;;;;;;7368880;19;19998;-81
2024/01/29 09:07:02;;;;;;;15.88;9.52;;;;;;;;;;7375627;19;20379;-80
2024/01/29 09:09:28;;;;;;;16.65;10.20;;;;;;;;;;7377077;19;20007;-80
2024/01/29 09:11:53;;;;;;;17.83;11.17;;;;;;;;;;7374200;19;20016;-82
2024/01/29 09:14:20;;;;;;;17.77;11.73;;;;;;;;;;7377159;19;20282;-81
2024/01/29 09:16:45;;;;;;;17.20;10.98;;;;;;;;;;7381312;19;20010;-80
2024/01/29 09:19:11;;;;;;;16.58;10.48;;;;;;;;;;7377818;19;19998;-80
2024/01/29 09:21:37;;;;;;;16.50;10.60;;;;;;;;;;7383249;19;20347;-80
2024/01/29 09:24:02;;;;;;;15.90;10.45;;;;;;;;;;7375740;19;20058;-80
2024/01/29 09:26:27;;;;;;;17.75;10.05;;;;;;;;;;7370691;19;20251;-80
2024/01/29 09:28:53;;;;;;;14.75;9.80;;;;;;;;;;7358280;19;20747;-79
2024/01/29 09:31:18;;;;;;;15.38;10.05;;;;;;;;;;7376049;19;20311;-80
2024/01/29 09:33:44;;;;;;;18.65;10.48;;;;;;;;;;7375543;19;20027;-79
2024/01/29 09:36:09;;;;;;;22.38;13.90;;;;;;;;;;7375085;19;20062;-80
2024/01/29 09:38:34;;;;;;;26.25;16.13;;;;;;;;;;7364119;19;19995;-80
2024/01/29 09:41:00;;;;;;;19.80;12.90;;;;;;;;;;7375404;19;20015;-80
2024/01/29 09:43:25;;;;;;;25.80;15.10;;;;;;;;;;7364560;19;20279;-80
2024/01/29 09:45:51;;;;;;;24.40;15.35;;;;;;;;;;7369187;19;20052;-81
2024/01/29 09:48:16;;;;;;;18.23;11.93;;;;;;;;;;7373285;19;20440;-80
2024/01/29 09:50:42;;;;;;;20.95;11.85;;;;;;;;;;7373012;19;20003;-80
2024/01/29 09:53:08;;;;;;;17.70;11.27;;;;;;;;;;7373184;19;20657;-80
2024/01/29 09:55:33;;;;;;;19.67;10.88;;;;;;;;;;7377562;19;19998;-81
2024/01/29 09:57:58;;;;;;;16.58;10.98;;;;;;;;;;7367382;19;20415;-80
2024/01/29 10:00:23;;;;;;;15.10;9.77;;;;;;;;;;7371702;19;19990;-81
2024/01/29 10:02:53;;;;;;;15.73;9.43;;;;;;;;;;7377459;19;20255;-80
2024/01/29 10:05:18;;;;;;;16.38;10.02;;;;;;;;;;7375521;19;20028;-81
2024/01/29 10:07:43;;;;;;;18.42;9.40;;;;;;;;;;7377816;19;19998;-82
2024/01/29 10:10:09;;;;;;;17.27;10.38;;;;;;;;;;7372662;19;20928;-81
2024/01/29 10:12:34;;;;;;;15.13;9.45;;;;;;;;;;7377009;19;19997;-81
2024/01/29 10:14:59;;;;;;;15.50;8.90;;;;;;;;;;7376209;19;20002;-81
2024/01/29 10:17:24;;;;;;;14.07;9.07;;;;;;;;;;7379761;19;20219;-80
2024/01/29 10:19:50;;;;;;;13.88;9.00;;;;;;;;;;7377501;19;20651;-79
2024/01/29 10:22:16;;;;;;;14.93;9.38;;;;;;;;;;7378407;19;20007;-80
2024/01/29 10:24:41;;;;;;;13.68;8.80;;;;;;;;;;7373259;19;20351;-80
2024/01/29 10:27:07;;;;;;;13.27;8.88;;;;;;;;;;7371154;19;20022;-79
2024/01/29 10:29:33;;;;;;;13.25;9.18;;;;;;;;;;7383389;19;20281;-80
2024/01/29 10:32:01;;;;;;;12.45;8.48;;;;;;;;;;7375502;19;20006;-80
2024/01/29 10:34:27;;;;;;;14.35;8.70;;;;;;;;;;7378282;19;19999;-80
2024/01/29 10:36:53;;;;;;;15.50;8.27;;;;;;;;;;7375292;19;20494;-80
2024/01/29 10:39:20;;;;;;;15.73;8.45;;;;;;;;;;7372967;19;20308;-80
2024/01/29 10:41:47;;;;;;;14.00;8.43;;;;;;;;;;7377221;19;20002;-82
2024/01/29 10:44:15;;;;;;;14.10;8.45;;;;;;;;;;7366292;19;20516;-81
2024/01/29 10:46:41;;;;;;;13.50;8.52;;;;;;;;;;7372955;19;20099;-81
2024/01/29 10:49:06;;;;;;;14.77;8.00;;;;;;;;;;7378458;19;20114;-82
2024/01/29 10:51:33;;;;;;;15.63;8.30;;;;;;;;;;7374844;19;20083;-80
2024/01/29 10:53:59;;;;;;;12.25;7.35;;;;;;;;;;7372797;19;20519;-81
2024/01/29 10:56:24;;;;;;;15.02;8.43;;;;;;;;;;7373304;19;19998;-80
2024/01/29 10:58:52;;;;;;;14.52;8.15;;;;;;;;;;7371827;19;20014;-80
2024/01/29 11:01:18;;;;;;;12.63;8.25;;;;;;;;;;7374085;19;20006;-80
2024/01/29 11:03:44;;;;;;;12.40;8.13;;;;;;;;;;7373665;19;20002;-80
2024/01/29 11:06:29;;;;;;;13.52;7.78;;;;;;;;;;7386629;19;20003;-79
2024/01/29 11:08:59;;;;;;;15.40;8.35;;;;;;;;;;7377816;19;20003;-80
2024/01/29 11:11:27;;;;;;;12.43;7.95;;;;;;;;;;7378286;19;19990;-79
2024/01/29 11:13:52;;;;;;;13.50;8.05;;;;;;;;;;7379464;19;20119;-80
2024/01/29 11:16:17;;;;;;;14.77;8.25;;;;;;;;;;7374154;19;20141;-79
2024/01/29 11:18:43;;;;;;;16.27;8.27;;;;;;;;;;7368823;19;20313;-79
2024/01/29 11:21:14;;;;;;;17.42;8.70;;;;;;;;;;7375028;19;20015;-80
2024/01/29 11:23:47;;;;;;;17.50;7.57;;;;;;;;;;7355885;19;20043;-80
2024/01/29 11:26:15;;;;;;;13.80;7.83;;;;;;;;;;7372808;19;20013;-80
2024/01/29 11:28:41;;;;;;;11.98;7.97;;;;;;;;;;7377981;19;20010;-79
2024/01/29 11:31:08;;;;;;;12.80;7.32;;;;;;;;;;7377283;19;19999;-80
2024/01/29 11:33:33;;;;;;;13.75;8.10;;;;;;;;;;7379935;19;20013;-81
2024/01/29 11:36:05;;;;;;;12.97;7.47;;;;;;;;;;7374907;19;20002;-81
2024/01/29 11:38:30;;;;;;;12.82;7.70;;;;;;;;;;7373466;19;20271;-82
2024/01/29 11:41:00;;;;;;;14.63;8.33;;;;;;;;;;7377915;19;19995;-81
2024/01/29 11:43:25;;;;;;;13.60;7.63;;;;;;;;;;7369626;19;20302;-80
2024/01/29 11:45:51;;;;;;;13.98;7.60;;;;;;;;;;7378676;19;20006;-82
2024/01/29 11:48:18;;;;;;;11.93;7.40;;;;;;;;;;7374881;19;20015;-82
2024/01/29 11:50:47;;;;;;;12.68;7.20;;;;;;;;;;7372173;19;20006;-82
2024/01/29 11:53:14;;;;;;;14.63;8.15;;;;;;;;;;7357125;19;20615;-82
2024/01/29 11:55:39;;;;;;;18.55;8.27;;;;;;;;;;7376586;19;20106;-79
2024/01/29 11:58:18;;;;;;;15.80;8.00;;;;;;;;;;7362143;19;20045;-79
2024/01/29 12:00:44;;;;;;;14.75;7.95;;;;;;;;;;7371014;19;20369;-80
2024/01/29 12:03:10;;;;;;;16.75;8.52;;;;;;;;;;7367285;19;20507;-79
2024/01/29 12:05:35;;;;;;;11.35;7.43;;;;;;;;;;7371224;19;19994;-81
2024/01/29 12:08:00;;;;;;;12.50;8.13;;;;;;;;;;7372212;19;20342;-81
2024/01/29 12:10:25;;;;;;;13.67;7.50;;;;;;;;;;7380947;19;20866;-81
2024/01/29 12:12:50;;;;;;;14.18;7.70;;;;;;;;;;7378702;19;20540;-81
2024/01/29 12:15:16;;;;;;;13.07;7.63;;;;;;;;;;7366482;19;20016;-81
2024/01/29 12:17:42;;;;;;;13.80;8.43;;;;;;;;;;7378502;19;20019;-81
2024/01/29 12:20:10;;;;;;;13.32;8.02;;;;;;;;;;7374835;19;20258;-81
2024/01/29 12:22:35;;;;;;;14.88;7.30;;;;;;;;;;7372728;19;20404;-81
2024/01/29 12:25:00;;;;;;;14.10;7.60;;;;;;;;;;7375251;19;20018;-82
2024/01/29 12:27:26;;;;;;;13.60;7.65;;;;;;;;;;7364888;19;20023;-82
2024/01/29 12:29:51;;;;;;;13.40;7.60;;;;;;;;;;7370500;19;20022;-81
2024/01/29 12:32:20;;;;;;;14.40;7.40;;;;;;;;;;7377243;19;20556;-80
2024/01/29 12:34:45;;;;;;;14.85;7.43;;;;;;;;;;7376143;19;20466;-81
2024/01/29 12:37:21;;;;;;;12.23;7.22;;;;;;;;;;7354043;19;20006;-80
2024/01/29 12:39:56;;;;;;;12.77;6.47;;;;;;;;;;7360438;19;20005;-80
2024/01/29 12:42:21;;;;;;;13.60;6.88;;;;;;;;;;7367987;19;20013;-80
2024/01/29 12:44:48;;;;;;;13.02;7.13;;;;;;;;;;7382848;19;20063;-80
2024/01/29 12:47:13;;;;;;;13.23;7.03;;;;;;;;;;7376907;19;20103;-80
2024/01/29 12:49:39;;;;;;;12.98;7.00;;;;;;;;;;7380554;19;20451;-80
2024/01/29 12:52:04;;;;;;;15.30;6.85;;;;;;;;;;7376346;19;20134;-80
2024/01/29 12:54:29;;;;;;;12.93;6.85;;;;;;;;;;7370689;19;20046;-79
2024/01/29 12:56:55;;;;;;;15.87;6.67;;;;;;;;;;7367400;19;19995;-80
2024/01/29 12:59:20;;;;;;;12.80;6.88;;;;;;;;;;7372497;19;19995;-81
2024/01/29 13:01:45;;;;;;;14.05;7.25;;;;;;;;;;7378041;19;20034;-82
2024/01/29 13:04:10;;;;;;;11.75;6.90;;;;;;;;;;7364835;19;20423;-78
2024/01/29 13:06:36;;;;;;;13.30;7.00;;;;;;;;;;7364456;19;20392;-81
2024/01/29 13:09:01;;;;;;;14.47;7.17;;;;;;;;;;7364978;19;20389;-79
2024/01/29 13:11:26;;;;;;;15.53;6.80;;;;;;;;;;7373852;19;20002;-79
2024/01/29 13:13:51;;;;;;;10.82;5.85;;;;;;;;;;7384156;19;20240;-81
2024/01/29 13:16:16;;;;;;;13.23;6.45;;;;;;;;;;7377215;19;20026;-80
2024/01/29 13:18:42;;;;;;;12.70;6.70;;;;;;;;;;7381028;19;20570;-79
2024/01/29 13:21:07;;;;;;;12.23;7.07;;;;;;;;;;7380913;19;20518;-80
2024/01/29 13:23:32;;;;;;;12.73;6.60;;;;;;;;;;7384062;19;19995;-79
2024/01/29 13:25:57;;;;;;;13.87;7.33;;;;;;;;;;7383665;19;20340;-80
2024/01/29 13:28:22;;;;;;;13.03;6.23;;;;;;;;;;7365973;19;20006;-82
2024/01/29 13:30:49;;;;;;;10.73;5.50;;;;;;;;;;7382420;19;20046;-82
2024/01/29 13:33:16;;;;;;;11.68;6.35;;;;;;;;;;7383943;19;20110;-80
2024/01/29 13:35:41;;;;;;;11.95;6.53;;;;;;;;;;7384795;19;20002;-82
2024/01/29 13:38:06;;;;;;;11.50;6.50;;;;;;;;;;7384068;19;20038;-82
2024/01/29 13:40:31;;;;;;;13.43;6.80;;;;;;;;;;7382700;19;20025;-83
2024/01/29 13:42:56;;;;;;;10.65;6.40;;;;;;;;;;7363094;19;20601;-82
2024/01/29 13:45:22;;;;;;;12.37;6.07;;;;;;;;;;7379854;19;20058;-82
2024/01/29 13:47:49;;;;;;;10.23;6.00;;;;;;;;;;7383554;19;19994;-81
2024/01/29 13:50:14;;;;;;;10.80;6.13;;;;;;;;;;7357540;19;20683;-82
2024/01/29 13:52:40;;;;;;;12.18;6.30;;;;;;;;;;7378502;19;20003;-83
2024/01/29 13:55:05;;;;;;;11.07;6.33;;;;;;;;;;7377513;19;20081;-82
2024/01/29 13:57:30;;;;;;;12.27;5.85;;;;;;;;;;7376038;19;20259;-82
2024/01/29 13:59:58;;;;;;;12.63;6.93;;;;;;;;;;7378420;19;20451;-83
2024/01/29 14:02:23;;;;;;;15.07;6.43;;;;;;;;;;7379319;19;20370;-83
2024/01/29 14:04:48;;;;;;;12.55;6.47;;;;;;;;;;7379062;19;20018;-81
2024/01/29 14:07:13;;;;;;;13.75;5.78;;;;;;;;;;7373582;19;20043;-79
2024/01/29 14:09:38;;;;;;;12.32;6.47;;;;;;;;;;7372039;19;20010;-79
2024/01/29 14:12:04;;;;;;;10.47;6.10;;;;;;;;;;7358701;19;20297;-78
2024/01/29 14:14:29;;;;;;;11.93;6.30;;;;;;;;;;7362010;19;20005;-79
2024/01/29 14:16:54;;;;;;;9.95;6.60;;;;;;;;;;7378911;19;20003;-78